Time;durP1;ratioP1;P1;durP2;ratioP2;P2;SDS_P1;SDS_P2;PMS_P1;PMS_P2;Temp;Humidity;BMP_temperature;BMP_pressure;BME280_temperature;BME280_humidity;BME280_pressure;Samples;Min_cycle;Max_cycle;Signal;HPM_P1;HPM_P2
2024/02/10 00:00:22;;;;;;;9.37;3.87;;;;;;;-11.43;48.30;99461.97;4789544;29;20502;-65
2024/02/10 00:02:51;;;;;;;9.30;3.93;;;;;;;-11.53;48.43;99470.47;4751020;29;20058;-66
2024/02/10 00:05:18;;;;;;;15.70;4.33;;;;;;;-11.49;48.70;99495.06;4768295;29;20053;-65
2024/02/10 00:07:52;;;;;;;9.40;3.33;;;;;;;-11.57;48.65;99498.63;4794001;29;20071;-63
2024/02/10 00:10:27;;;;;;;7.07;3.33;;;;;;;-11.70;48.30;99474.22;4784116;29;20076;-64
2024/02/10 00:12:59;;;;;;;8.87;3.37;;;;;;;-11.73;48.28;99482.44;4783241;29;20047;-63
2024/02/10 00:15:27;;;;;;;8.77;3.27;;;;;;;-11.95;48.24;99482.44;4789441;29;20053;-64
2024/02/10 00:17:53;;;;;;;10.23;3.27;;;;;;;-11.98;48.69;99485.63;4791672;29;20054;-63
2024/02/10 00:20:20;;;;;;;12.57;3.97;;;;;;;-12.01;48.87;99497.97;4781611;29;20057;-64
2024/02/10 00:22:50;;;;;;;10.77;3.60;;;;;;;-12.26;47.78;99477.66;4790042;29;20453;-64
2024/02/10 00:25:16;;;;;;;7.57;3.60;;;;;;;-12.13;48.59;99499.50;4767093;29;20503;-64
2024/02/10 00:27:46;;;;;;;7.57;3.57;;;;;;;-12.20;48.74;99499.84;4783073;29;20055;-62
2024/02/10 00:30:13;;;;;;;11.80;3.27;;;;;;;-12.21;48.41;99503.09;4774273;29;20111;-65
2024/02/10 00:32:40;;;;;;;11.47;3.70;;;;;;;-12.26;47.80;99506.13;4752551;29;20054;-63
2024/02/10 00:35:06;;;;;;;6.90;2.97;;;;;;;-12.38;47.94;99482.63;4794952;29;20499;-64
2024/02/10 00:37:34;;;;;;;5.53;2.93;;;;;;;-12.38;48.41;99505.19;4793559;29;20058;-64
2024/02/10 00:40:01;;;;;;;8.77;3.20;;;;;;;-12.51;48.26;99510.88;4782615;29;20434;-63
2024/02/10 00:42:31;;;;;;;12.33;3.90;;;;;;;-12.63;48.19;99500.78;4783381;29;20434;-64
2024/02/10 00:44:59;;;;;;;7.97;3.20;;;;;;;-12.70;48.15;99490.16;4782841;29;20534;-65
2024/02/10 00:47:28;;;;;;;13.80;4.57;;;;;;;-12.69;47.65;99522.84;4793697;29;20055;-63
2024/02/10 00:50:01;;;;;;;11.03;4.60;;;;;;;-12.80;47.96;99501.97;4781912;29;20051;-64
2024/02/10 00:52:31;;;;;;;11.93;5.10;;;;;;;-12.59;48.57;99515.31;4788826;29;20414;-63
2024/02/10 00:54:57;;;;;;;12.97;4.50;;;;;;;-12.51;47.93;99530.06;4779666;29;20513;-62
2024/02/10 00:57:23;;;;;;;9.10;4.50;;;;;;;-12.64;47.84;99534.13;4762241;29;20496;-64
2024/02/10 00:59:49;;;;;;;12.00;3.77;;;;;;;-12.78;48.02;99530.53;4778058;29;20050;-64
2024/02/10 01:02:19;;;;;;;8.07;2.87;;;;;;;-11.48;51.26;99541.13;4781814;29;20042;-62
2024/02/10 01:04:47;;;;;;;9.40;3.67;;;;;;;-12.07;47.76;99507.53;4774700;29;20082;-62
2024/02/10 01:07:16;;;;;;;8.20;3.03;;;;;;;-12.50;46.98;99527.69;4778357;29;20058;-62
2024/02/10 01:09:46;;;;;;;7.53;3.20;;;;;;;-12.72;47.43;99541.03;4780861;29;20047;-64
2024/02/10 01:12:13;;;;;;;7.97;3.17;;;;;;;-13.06;47.35;99528.31;4793698;29;20118;-61
2024/02/10 01:14:40;;;;;;;10.17;3.10;;;;;;;-13.11;47.47;99531.22;4793624;29;20046;-63
2024/02/10 01:17:10;;;;;;;8.43;3.47;;;;;;;-13.07;47.44;99564.16;4781655;29;20105;-63
2024/02/10 01:19:46;;;;;;;9.10;3.10;;;;;;;-13.09;47.23;99569.81;4767863;29;20047;-62
2024/02/10 01:22:17;;;;;;;8.97;3.20;;;;;;;-13.21;47.66;99557.16;4764782;29;20065;-63
2024/02/10 01:24:45;;;;;;;8.03;3.20;;;;;;;-13.20;47.33;99573.94;4794046;29;20051;-65
2024/02/10 01:27:16;;;;;;;10.53;3.70;;;;;;;-13.41;47.27;99541.41;4777059;29;20051;-63
2024/02/10 01:29:50;;;;;;;8.77;3.60;;;;;;;-13.24;47.59;99591.97;4781204;29;20047;-64
2024/02/10 01:32:19;;;;;;;7.67;3.03;;;;;;;-13.60;47.35;99533.16;4767029;29;20352;-63
2024/02/10 01:34:50;;;;;;;6.93;3.73;;;;;;;-13.32;47.32;99594.72;4746104;29;20047;-62
2024/02/10 01:37:18;;;;;;;9.60;4.13;;;;;;;-13.32;47.45;99586.34;4786771;29;20162;-64
2024/02/10 01:39:53;;;;;;;9.07;3.90;;;;;;;-13.25;47.49;99580.19;4778603;29;20061;-62
2024/02/10 01:42:26;;;;;;;9.60;4.43;;;;;;;-13.16;47.17;99593.47;4793695;29;20059;-64
2024/02/10 01:44:52;;;;;;;;;;;;;;;-13.10;47.74;99603.97;4766904;29;20081;-62
2024/02/10 01:47:20;;;;;;;10.60;4.03;;;;;;;-13.02;47.88;99609.66;4781539;29;20393;-63
2024/02/10 01:49:46;;;;;;;9.17;3.90;;;;;;;-13.06;47.71;99608.50;4788013;29;20141;-62
2024/02/10 01:52:12;;;;;;;12.77;4.40;;;;;;;-13.22;47.47;99593.84;4781904;29;20061;-63
2024/02/10 01:54:39;;;;;;;11.47;4.97;;;;;;;-13.28;47.47;99598.38;4794182;29;20046;-62
2024/02/10 01:57:07;;;;;;;11.83;3.87;;;;;;;-13.47;47.47;99575.97;4793525;29;20140;-64
2024/02/10 01:59:40;;;;;;;11.10;3.40;;;;;;;-13.49;47.61;99589.97;4795594;29;20510;-63
2024/02/10 02:02:06;;;;;;;8.10;3.60;;;;;;;-13.48;47.05;99619.28;4780926;29;20531;-63
2024/02/10 02:04:36;;;;;;;10.50;3.43;;;;;;;-13.74;47.50;99602.94;4766703;29;20057;-63
2024/02/10 02:07:10;;;;;;;8.20;3.33;;;;;;;-13.64;47.90;99625.50;4765959;29;20475;-64
2024/02/10 02:09:37;;;;;;;7.83;3.73;;;;;;;-13.63;47.72;99624.78;4766264;29;20038;-62
2024/02/10 02:12:07;;;;;;;9.60;4.10;;;;;;;-13.80;46.94;99619.97;4780663;29;20053;-64
2024/02/10 02:14:39;;;;;;;12.88;4.80;;;;;;;-13.91;47.40;99618.19;4790239;29;20095;-63
2024/02/10 02:17:09;;;;;;;12.55;5.30;;;;;;;-13.78;47.40;99626.84;4765008;29;20183;-64
2024/02/10 02:19:40;;;;;;;11.03;5.20;;;;;;;-13.75;47.75;99612.84;4762817;29;20054;-64
2024/02/10 02:22:09;;;;;;;13.02;5.13;;;;;;;-13.74;48.08;99607.97;4763114;29;20047;-62
2024/02/10 02:24:35;;;;;;;7.87;3.70;;;;;;;-13.46;47.74;99631.94;4775797;29;20056;-64
2024/02/10 02:27:04;;;;;;;13.07;4.03;;;;;;;-13.48;48.26;99629.28;4791166;29;20043;-66
2024/02/10 02:29:31;;;;;;;9.37;4.77;;;;;;;-13.74;47.10;99615.47;4793897;29;20049;-64
2024/02/10 02:32:00;;;;;;;9.63;3.80;;;;;;;-13.74;47.58;99625.47;4764575;29;20054;-65
2024/02/10 02:34:33;;;;;;;12.30;3.70;;;;;;;-13.76;47.47;99647.00;4780292;29;20142;-67
2024/02/10 02:37:00;;;;;;;12.83;4.53;;;;;;;-13.85;47.47;99636.22;4765149;29;20054;-68
2024/02/10 02:39:27;;;;;;;8.47;3.73;;;;;;;-13.93;47.22;99638.06;4760434;29;20217;-67
2024/02/10 02:41:59;;;;;;;10.90;4.70;;;;;;;-13.82;47.71;99664.88;4786251;29;20045;-65
2024/02/10 02:44:27;;;;;;;14.10;5.10;;;;;;;-13.90;48.19;99630.84;4763784;29;20519;-66
2024/02/10 02:46:54;;;;;;;11.73;4.20;;;;;;;-13.69;47.99;99656.78;4791705;29;20059;-65
2024/02/10 02:49:23;;;;;;;10.43;4.47;;;;;;;-13.78;47.92;99666.00;4779601;29;20044;-65
2024/02/10 02:51:50;;;;;;;10.43;4.57;;;;;;;-14.03;47.00;99658.03;4774909;29;20506;-63
2024/02/10 02:54:22;;;;;;;9.93;4.13;;;;;;;-14.12;47.73;99664.00;4763998;29;20112;-65
2024/02/10 02:56:54;;;;;;;14.43;5.00;;;;;;;-14.19;47.79;99691.72;4765996;29;20522;-65
2024/02/10 02:59:21;;;;;;;12.93;5.07;;;;;;;-14.29;48.07;99699.16;4761784;29;20146;-65
2024/02/10 03:01:51;;;;;;;11.43;4.90;;;;;;;-14.27;48.72;99702.69;4780265;29;20047;-64
2024/02/10 03:04:18;;;;;;;15.70;5.10;;;;;;;-14.13;49.28;99708.91;4767673;29;20050;-63
2024/02/10 03:06:45;;;;;;;15.63;5.13;;;;;;;-14.13;48.35;99716.41;4788288;29;20423;-63
2024/02/10 03:09:14;;;;;;;10.17;4.60;;;;;;;-14.01;49.36;99717.44;4791340;29;20131;-62
2024/02/10 03:11:40;;;;;;;9.57;3.90;;;;;;;-14.18;48.86;99691.00;4785274;29;20054;-65
2024/02/10 03:14:07;;;;;;;10.70;4.57;;;;;;;-14.09;49.07;99719.28;4765526;29;20538;-63
2024/02/10 03:16:33;;;;;;;11.70;4.70;;;;;;;-14.05;49.35;99715.44;4775041;29;20621;-63
2024/02/10 03:19:05;;;;;;;10.90;4.13;;;;;;;-13.87;49.12;99723.66;4765304;29;20051;-64
2024/02/10 03:21:35;;;;;;;13.10;4.10;;;;;;;-13.85;49.60;99701.28;4794058;29;20147;-64
2024/02/10 03:24:05;;;;;;;12.17;4.47;;;;;;;-13.78;48.60;99698.53;4774323;29;20081;-65
2024/02/10 03:26:35;;;;;;;12.90;4.37;;;;;;;-13.67;48.63;99715.38;4780083;29;20054;-64
2024/02/10 03:29:05;;;;;;;11.03;4.03;;;;;;;-13.46;48.91;99727.09;4790016;29;20042;-63
2024/02/10 03:31:31;;;;;;;10.33;4.70;;;;;;;-13.40;49.29;99718.44;4792192;29;20107;-63
2024/02/10 03:33:58;;;;;;;8.87;4.57;;;;;;;-13.23;49.14;99722.34;4782100;29;20077;-63
2024/02/10 03:36:25;;;;;;;11.13;4.13;;;;;;;-13.03;48.96;99734.03;4782750;29;20051;-63
2024/02/10 03:38:54;;;;;;;15.90;4.83;;;;;;;-12.90;49.07;99735.94;4782665;29;20057;-63
2024/02/10 03:41:22;;;;;;;11.87;4.23;;;;;;;-12.93;48.42;99719.78;4772177;29;20055;-63
2024/02/10 03:43:48;;;;;;;13.87;5.13;;;;;;;-12.74;48.71;99753.13;4763428;29;20049;-64
2024/02/10 03:46:14;;;;;;;12.30;4.80;;;;;;;-12.84;48.36;99739.72;4779224;29;20070;-65
2024/02/10 03:48:42;;;;;;;13.53;5.67;;;;;;;-12.78;48.83;99743.59;4782737;29;20082;-64
2024/02/10 03:51:11;;;;;;;13.47;5.47;;;;;;;-12.79;48.13;99749.34;4783517;29;20069;-61
2024/02/10 03:53:38;;;;;;;10.07;4.77;;;;;;;-12.84;48.40;99739.72;4772854;29;20045;-65
2024/02/10 03:56:06;;;;;;;11.90;4.73;;;;;;;-12.84;48.19;99730.53;4767058;29;20491;-62
2024/02/10 03:58:32;;;;;;;10.73;4.77;;;;;;;-12.58;47.91;99759.41;4793628;29;20061;-63
2024/02/10 04:00:59;;;;;;;11.17;4.60;;;;;;;-12.48;47.93;99764.44;4769468;29;20046;-63
2024/02/10 04:03:27;;;;;;;16.10;5.70;;;;;;;-12.35;48.01;99771.28;4755359;29;20054;-64
2024/02/10 04:05:54;;;;;;;13.07;4.50;;;;;;;-12.38;47.98;99763.53;4782281;29;20051;-64
2024/02/10 04:08:25;;;;;;;8.30;4.50;;;;;;;-12.41;47.53;99763.28;4777848;29;20047;-63
2024/02/10 04:10:51;;;;;;;9.67;4.37;;;;;;;-12.46;47.32;99757.88;4766824;29;20119;-63
2024/02/10 04:13:17;;;;;;;11.63;5.10;;;;;;;-12.41;47.67;99760.78;4778156;29;20729;-64
2024/02/10 04:15:43;;;;;;;10.10;4.50;;;;;;;-12.36;47.11;99766.16;4783502;29;20047;-63
2024/02/10 04:18:09;;;;;;;15.57;5.60;;;;;;;-12.24;47.05;99786.34;4794247;29;20058;-64
2024/02/10 04:20:35;;;;;;;12.13;5.53;;;;;;;-12.27;47.21;99777.81;4789056;29;20050;-66
2024/02/10 04:23:05;;;;;;;13.60;5.00;;;;;;;-12.27;47.51;99776.97;4778213;29;20061;-64
2024/02/10 04:25:32;;;;;;;10.97;4.57;;;;;;;-12.33;47.03;99777.31;4782083;29;20481;-63
2024/02/10 04:28:02;;;;;;;12.33;4.60;;;;;;;-12.25;47.18;99800.53;4783938;29;20047;-62
2024/02/10 04:30:31;;;;;;;12.03;4.83;;;;;;;-12.26;47.06;99799.66;4779306;29;22151;-64
2024/02/10 04:32:57;;;;;;;14.03;4.90;;;;;;;-12.14;46.97;99809.81;4769138;29;20150;-61
2024/02/10 04:35:25;;;;;;;9.63;4.70;;;;;;;-12.15;46.65;99802.16;4792095;29;20159;-63
2024/02/10 04:37:51;;;;;;;11.70;4.30;;;;;;;-12.13;47.03;99795.63;4769225;29;20418;-64
2024/02/10 04:40:18;;;;;;;10.97;4.33;;;;;;;-12.04;46.70;99806.41;4780029;29;20324;-66
2024/02/10 04:42:45;;;;;;;11.57;4.27;;;;;;;-11.97;46.66;99807.75;4767910;29;20422;-63
2024/02/10 04:45:25;;;;;;;14.00;4.20;;;;;;;-12.20;46.65;99776.69;4766340;29;20092;-63
2024/02/10 04:47:51;;;;;;;12.47;5.03;;;;;;;-12.00;47.00;99818.47;4766074;29;20107;-64
2024/02/10 04:50:21;;;;;;;13.03;4.80;;;;;;;-12.06;46.61;99814.59;4782025;29;20051;-64
2024/02/10 04:52:47;;;;;;;13.90;6.07;;;;;;;-12.04;46.81;99820.59;4774819;29;20054;-64
2024/02/10 04:55:15;;;;;;;14.90;5.03;;;;;;;-12.02;46.26;99814.06;4776874;29;20423;-62
2024/02/10 04:57:42;;;;;;;13.20;4.87;;;;;;;-11.96;46.29;99817.03;4796879;29;20050;-64
2024/02/10 05:00:15;;;;;;;12.60;5.77;;;;;;;-11.91;46.55;99828.34;4793677;29;20441;-64
2024/02/10 05:02:46;;;;;;;14.07;5.43;;;;;;;-11.92;46.48;99830.72;4763057;29;20176;-64
2024/02/10 05:05:13;;;;;;;10.90;5.00;;;;;;;-11.99;46.21;99820.22;4793380;29;20063;-63
2024/02/10 05:07:42;;;;;;;14.87;5.40;;;;;;;-12.11;46.25;99812.56;4782228;29;20154;-62
2024/02/10 05:10:11;;;;;;;14.13;5.20;;;;;;;-12.16;46.29;99811.31;4782133;29;20360;-63
2024/02/10 05:12:38;;;;;;;13.20;5.27;;;;;;;-12.00;46.61;99842.66;4782256;29;20039;-64
2024/02/10 05:15:08;;;;;;;10.67;4.97;;;;;;;-12.23;45.97;99800.66;4782775;29;20055;-63
2024/02/10 05:17:34;;;;;;;14.03;5.57;;;;;;;-11.98;46.40;99844.53;4782216;29;20092;-64
2024/02/10 05:20:10;;;;;;;12.87;4.10;;;;;;;-11.98;45.67;99851.16;4767057;29;20046;-62
2024/02/10 05:22:37;;;;;;;13.87;4.80;;;;;;;-12.09;46.13;99827.75;4777682;29;20054;-64
2024/02/10 05:25:06;;;;;;;12.87;4.40;;;;;;;-12.02;46.01;99826.59;4777638;29;20510;-62
2024/02/10 05:27:33;;;;;;;12.90;4.17;;;;;;;-11.75;46.42;99852.16;4793686;29;20058;-63
2024/02/10 05:29:59;;;;;;;11.17;4.37;;;;;;;-11.49;46.45;99836.66;4782157;29;20126;-62
2024/02/10 05:32:28;;;;;;;17.73;5.50;;;;;;;-11.17;45.81;99844.97;4796987;29;20107;-65
2024/02/10 05:34:54;;;;;;;9.57;4.40;;;;;;;-10.76;45.51;99870.81;4767840;29;20069;-65
2024/02/10 05:37:20;;;;;;;12.37;6.30;;;;;;;-10.29;45.89;99865.09;4791759;29;20054;-63
2024/02/10 05:39:46;;;;;;;9.40;4.63;;;;;;;-9.76;45.23;99868.06;4778912;29;20046;-64
2024/02/10 05:42:13;;;;;;;11.57;5.43;;;;;;;-9.41;45.01;99874.78;4766795;29;20556;-64
2024/02/10 05:44:40;;;;;;;14.85;5.82;;;;;;;-8.95;44.80;99875.53;4783177;29;20065;-63
2024/02/10 05:47:07;;;;;;;16.65;6.18;;;;;;;-8.67;44.47;99854.75;4764108;29;20058;-62
2024/02/10 05:49:34;;;;;;;13.57;5.65;;;;;;;-8.30;44.56;99855.44;4779408;29;20047;-64
2024/02/10 05:52:00;;;;;;;12.43;5.25;;;;;;;-7.70;44.14;99864.44;4781261;29;20081;-65
2024/02/10 05:54:33;;;;;;;14.45;5.72;;;;;;;-7.25;43.61;99879.94;4793658;29;20047;-64
2024/02/10 05:56:59;;;;;;;14.45;6.05;;;;;;;-6.80;43.47;99872.63;4780689;29;20046;-64
2024/02/10 05:59:25;;;;;;;14.82;6.45;;;;;;;-6.06;43.48;99861.81;4765991;29;20057;-65
2024/02/10 06:01:52;;;;;;;13.65;5.85;;;;;;;-5.22;42.99;99842.81;4777088;29;20050;-64
2024/02/10 06:04:18;;;;;;;23.85;13.63;;;;;;;-4.25;42.64;99853.03;4779229;29;20046;-63
2024/02/10 06:06:47;;;;;;;16.17;7.50;;;;;;;-3.66;41.52;99834.75;4793956;29;20203;-63
2024/02/10 06:09:13;;;;;;;15.35;6.80;;;;;;;-2.91;41.11;99839.09;4766122;29;20050;-64
2024/02/10 06:11:39;;;;;;;16.95;7.15;;;;;;;-2.24;40.19;99848.03;4790202;29;20046;-66
2024/02/10 06:14:08;;;;;;;15.85;7.50;;;;;;;-1.57;39.60;99846.56;4764126;29;20062;-66
2024/02/10 06:16:35;;;;;;;14.18;6.72;;;;;;;-0.72;38.68;99861.75;4783507;29;20051;-64
2024/02/10 06:19:02;;;;;;;14.88;7.30;;;;;;;-0.01;38.39;99864.31;4762913;29;20055;-66
2024/02/10 06:21:28;;;;;;;17.58;7.63;;;;;;;0.53;37.51;99854.16;4762302;29;20125;-66
2024/02/10 06:23:54;;;;;;;16.55;8.70;;;;;;;1.10;36.60;99858.50;4779319;29;20046;-65
2024/02/10 06:26:20;;;;;;;20.02;9.63;;;;;;;1.71;36.72;99861.13;4779599;29;20108;-66
2024/02/10 06:28:49;;;;;;;17.95;9.15;;;;;;;2.38;35.82;99871.44;4776528;29;20046;-66
2024/02/10 06:31:18;;;;;;;18.98;8.48;;;;;;;3.05;35.29;99865.34;4758668;29;20080;-67
2024/02/10 06:33:46;;;;;;;20.77;10.50;;;;;;;3.75;34.60;99866.81;4777224;29;20042;-67
2024/02/10 06:36:13;;;;;;;20.35;9.68;;;;;;;4.58;33.98;99875.19;4788542;29;20049;-66
2024/02/10 06:38:42;;;;;;;18.15;8.68;;;;;;;4.72;33.22;99854.78;4778138;29;20043;-66
2024/02/10 06:41:08;;;;;;;22.42;10.25;;;;;;;5.47;32.86;99881.63;4762855;29;20054;-67
2024/02/10 06:43:35;;;;;;;20.63;10.45;;;;;;;5.98;32.06;99870.22;4748518;29;20039;-65
2024/02/10 06:46:05;;;;;;;18.17;10.18;;;;;;;6.58;31.07;99877.72;4778546;29;20051;-65
2024/02/10 06:48:32;;;;;;;18.48;9.60;;;;;;;7.31;30.54;99892.91;4792184;29;20337;-65
2024/02/10 06:50:58;;;;;;;20.83;10.48;;;;;;;7.08;29.08;99907.41;4784481;29;20415;-65
2024/02/10 06:53:24;;;;;;;18.95;11.52;;;;;;;7.35;29.55;99905.00;4762507;29;20052;-65
2024/02/10 06:55:51;;;;;;;23.50;12.68;;;;;;;7.98;29.00;99901.84;4772346;29;20054;-64
2024/02/10 06:58:24;;;;;;;35.08;18.05;;;;;;;8.54;27.64;99907.19;4748273;29;20043;-64
2024/02/10 07:00:50;;;;;;;41.13;21.00;;;;;;;7.99;27.76;99901.84;4772753;29;20058;-66
2024/02/10 07:03:17;;;;;;;35.83;19.48;;;;;;;8.67;26.92;99913.25;4766484;29;20101;-67
2024/02/10 07:05:49;;;;;;;34.20;19.48;;;;;;;9.10;26.89;99923.63;4777241;29;20530;-64
2024/02/10 07:08:16;;;;;;;41.35;23.20;;;;;;;9.93;26.55;99932.09;4777159;29;20122;-64
2024/02/10 07:10:46;;;;;;;41.58;23.58;;;;;;;10.15;26.01;99914.66;4792970;29;20046;-65
2024/02/10 07:13:12;;;;;;;35.05;21.17;;;;;;;11.06;25.23;99935.72;4777113;29;20453;-64
2024/02/10 07:15:38;;;;;;;31.33;17.48;;;;;;;10.95;23.77;99938.41;4775658;29;20153;-64
2024/02/10 07:18:07;;;;;;;31.05;17.45;;;;;;;10.78;24.76;99929.00;4790198;29;20068;-65
2024/02/10 07:20:34;;;;;;;30.17;17.02;;;;;;;10.66;23.87;99939.53;4773098;29;20404;-65
2024/02/10 07:23:03;;;;;;;23.48;14.05;;;;;;;9.89;22.55;99941.63;4773127;29;20145;-66
2024/02/10 07:25:32;;;;;;;18.20;11.05;;;;;;;8.42;24.19;99952.06;4745307;29;20053;-65
2024/02/10 07:28:02;;;;;;;16.98;10.27;;;;;;;8.74;24.15;99957.34;4760728;29;20138;-63
2024/02/10 07:30:30;;;;;;;15.82;8.93;;;;;;;8.10;23.85;99953.72;4777841;29;20228;-65
2024/02/10 07:33:03;;;;;;;14.25;8.75;;;;;;;8.84;24.71;99950.44;4745502;29;20144;-64
2024/02/10 07:35:32;;;;;;;12.63;8.50;;;;;;;9.58;22.60;99964.25;4763662;29;20051;-64
2024/02/10 07:37:59;;;;;;;12.93;8.52;;;;;;;9.16;23.39;99951.31;4776893;29;20050;-64
2024/02/10 07:40:25;;;;;;;12.68;8.40;;;;;;;10.17;23.94;99957.13;4776058;29;20382;-65
2024/02/10 07:42:52;;;;;;;13.27;8.95;;;;;;;10.53;22.55;99959.56;4758600;29;20170;-64
2024/02/10 07:45:19;;;;;;;14.68;9.43;;;;;;;10.50;21.89;99949.16;4789347;29;20106;-64
2024/02/10 07:47:45;;;;;;;17.23;11.77;;;;;;;9.61;22.87;99928.72;4777118;29;20055;-64
2024/02/10 07:50:11;;;;;;;22.25;14.30;;;;;;;10.39;23.19;99963.09;4775467;29;20051;-65
2024/02/10 07:52:40;;;;;;;21.10;13.30;;;;;;;9.80;22.48;99973.72;4788727;29;20046;-64
2024/02/10 07:55:12;;;;;;;18.83;12.50;;;;;;;10.35;22.57;99961.38;4776739;29;20067;-65
2024/02/10 07:57:39;;;;;;;20.23;12.70;;;;;;;9.57;21.37;99962.50;4757799;29;21749;-64
2024/02/10 08:00:09;;;;;;;20.67;13.23;;;;;;;8.57;22.96;99980.69;4776854;29;20090;-65
2024/02/10 08:02:36;;;;;;;21.08;12.30;;;;;;;9.00;21.87;99982.47;4771611;29;20070;-65
2024/02/10 08:05:04;;;;;;;13.98;9.38;;;;;;;9.15;22.01;99967.78;4757738;29;20050;-63
2024/02/10 08:07:32;;;;;;;15.73;10.80;;;;;;;9.76;23.46;99986.72;4757050;29;20050;-63
2024/02/10 08:10:00;;;;;;;18.13;11.48;;;;;;;11.29;23.11;99987.63;4789180;29;20531;-66
2024/02/10 08:12:29;;;;;;;16.27;10.63;;;;;;;12.94;22.10;99984.78;4792320;29;21540;-66
2024/02/10 08:14:57;;;;;;;15.52;9.75;;;;;;;13.85;21.56;99987.59;4788743;29;20544;-65
2024/02/10 08:17:26;;;;;;;14.93;10.77;;;;;;;14.75;20.00;99988.34;4788895;29;20051;-65
2024/02/10 08:19:59;;;;;;;13.77;10.27;;;;;;;15.43;20.82;99990.22;4791662;29;20431;-65
2024/02/10 08:22:36;;;;;;;17.30;11.00;;;;;;;16.18;20.02;99970.69;4748546;29;20534;-64
2024/02/10 08:25:04;;;;;;;15.20;11.10;;;;;;;16.77;19.77;99988.19;4791220;29;20046;-66
2024/02/10 08:27:31;;;;;;;15.98;11.63;;;;;;;17.00;19.27;99987.47;4780393;29;20081;-67
2024/02/10 08:29:59;;;;;;;14.95;10.57;;;;;;;17.67;19.10;99965.94;4792197;29;20525;-66
2024/02/10 08:32:26;;;;;;;13.40;10.48;;;;;;;16.68;17.31;99977.94;4765498;29;20047;-66
2024/02/10 08:34:53;;;;;;;13.32;10.02;;;;;;;15.49;19.14;99975.16;4777158;29;20427;-67
2024/02/10 08:37:20;;;;;;;13.85;9.98;;;;;;;16.49;19.00;99985.56;4766325;29;20086;-67
2024/02/10 08:39:47;;;;;;;15.18;11.18;;;;;;;17.04;18.89;99972.47;4748972;29;20135;-66
2024/02/10 08:42:16;;;;;;;18.83;12.05;;;;;;;17.91;18.29;99972.09;4779167;29;20506;-65
2024/02/10 08:44:47;;;;;;;18.65;13.20;;;;;;;18.16;17.91;99990.50;4777850;29;20799;-65
2024/02/10 08:47:13;;;;;;;19.73;12.52;;;;;;;17.70;17.83;99986.88;4751654;29;20047;-65
2024/02/10 08:49:39;;;;;;;16.48;10.90;;;;;;;15.90;17.68;99993.34;4776108;29;20056;-65
2024/02/10 08:52:09;;;;;;;14.48;10.45;;;;;;;16.41;17.99;99991.88;4780800;29;20086;-67
2024/02/10 08:54:36;;;;;;;16.10;10.95;;;;;;;16.98;17.69;100001.56;4781105;29;20515;-67
2024/02/10 08:57:02;;;;;;;11.75;9.45;;;;;;;16.06;17.61;100004.28;4777195;29;20050;-65
2024/02/10 08:59:33;;;;;;;19.95;13.05;;;;;;;14.61;17.99;99993.00;4780412;29;20043;-64
2024/02/10 09:02:04;;;;;;;12.82;10.00;;;;;;;15.57;17.90;100003.81;4791714;29;20062;-65
2024/02/10 09:04:30;;;;;;;14.45;9.57;;;;;;;16.36;18.00;100013.94;4774504;29;20063;-66
2024/02/10 09:06:57;;;;;;;13.00;9.48;;;;;;;16.09;18.06;99998.09;4791950;29;20043;-65
2024/02/10 09:09:25;;;;;;;13.13;9.88;;;;;;;16.67;16.65;100002.50;4760452;29;20138;-64
2024/02/10 09:11:51;;;;;;;11.65;9.43;;;;;;;16.82;17.13;100015.19;4780581;29;20042;-66
2024/02/10 09:14:17;;;;;;;12.27;9.73;;;;;;;17.18;17.24;100021.97;4786914;29;20480;-63
2024/02/10 09:16:46;;;;;;;13.55;9.27;;;;;;;18.16;17.49;100018.63;4770174;29;20047;-66
2024/02/10 09:19:13;;;;;;;11.48;9.50;;;;;;;18.67;17.06;100000.88;4773482;29;20047;-66
2024/02/10 09:21:41;;;;;;;12.25;9.32;;;;;;;19.01;16.33;100014.53;4751246;29;20070;-65
2024/02/10 09:24:09;;;;;;;11.52;9.82;;;;;;;17.92;16.03;100008.03;4778777;29;20051;-66
2024/02/10 09:26:36;;;;;;;13.45;10.80;;;;;;;17.04;16.88;100019.78;4791522;29;20141;-66
2024/02/10 09:29:02;;;;;;;15.52;11.73;;;;;;;16.03;16.91;100004.38;4776350;29;20510;-64
2024/02/10 09:31:28;;;;;;;14.52;11.27;;;;;;;15.35;17.13;100009.59;4779498;29;20078;-65
2024/02/10 09:33:54;;;;;;;14.63;10.40;;;;;;;14.56;16.51;100011.47;4789686;29;20591;-65
2024/02/10 09:36:25;;;;;;;12.50;10.05;;;;;;;14.57;17.96;100014.94;4778714;29;20125;-65
2024/02/10 09:38:51;;;;;;;16.17;11.77;;;;;;;15.79;17.98;100013.72;4748782;29;20595;-66
2024/02/10 09:41:18;;;;;;;17.00;13.13;;;;;;;16.30;17.22;99998.38;4791220;29;20490;-66
2024/02/10 09:43:48;;;;;;;19.13;13.93;;;;;;;17.05;17.44;100018.00;4786745;29;20042;-66
2024/02/10 09:46:15;;;;;;;20.20;13.52;;;;;;;16.61;16.33;100006.19;4777344;29;20074;-66
2024/02/10 09:48:46;;;;;;;16.60;12.05;;;;;;;15.27;16.78;100029.94;4778467;29;20105;-65
2024/02/10 09:51:12;;;;;;;18.08;11.75;;;;;;;15.34;17.25;100004.41;4779350;29;20049;-63
2024/02/10 09:53:42;;;;;;;18.02;11.88;;;;;;;14.19;17.46;100016.59;4767365;29;20157;-66
2024/02/10 09:56:15;;;;;;;18.75;13.85;;;;;;;14.00;18.19;100016.97;4778812;29;20133;-66
2024/02/10 09:58:44;;;;;;;18.83;11.57;;;;;;;14.76;17.68;100018.88;4778514;29;20039;-65
2024/02/10 10:01:11;;;;;;;19.38;12.48;;;;;;;14.88;18.20;100022.97;4789708;29;20153;-64
2024/02/10 10:03:37;;;;;;;17.73;13.35;;;;;;;15.58;17.91;100002.91;4791124;29;20046;-65
2024/02/10 10:06:09;;;;;;;16.88;12.38;;;;;;;16.04;17.94;100000.84;4778112;29;20055;-66
2024/02/10 10:08:41;;;;;;;16.38;10.93;;;;;;;16.43;16.63;99997.13;4779656;29;20042;-68
2024/02/10 10:11:11;;;;;;;14.65;11.25;;;;;;;15.73;17.01;99999.03;4793867;29;20368;-66
2024/02/10 10:13:38;;;;;;;15.25;10.50;;;;;;;16.38;17.83;100006.88;4777418;29;20078;-66
2024/02/10 10:16:08;;;;;;;15.85;10.35;;;;;;;16.65;17.20;100007.81;4762255;29;20095;-65
2024/02/10 10:18:35;;;;;;;14.13;10.50;;;;;;;14.64;16.24;100011.28;4763673;29;20046;-64
2024/02/10 10:21:06;;;;;;;15.00;10.75;;;;;;;12.11;17.68;100014.63;4778196;29;20142;-64
2024/02/10 10:23:33;;;;;;;15.50;11.00;;;;;;;9.85;18.34;100033.47;4789690;29;20504;-63
2024/02/10 10:26:00;;;;;;;14.35;10.82;;;;;;;7.86;19.38;100041.69;4772987;29;20082;-65
2024/02/10 10:28:26;;;;;;;15.25;10.35;;;;;;;6.93;20.24;100060.84;4763360;29;20043;-64
2024/02/10 10:30:56;;;;;;;15.85;9.88;;;;;;;5.39;20.79;100067.34;4789991;29;20043;-64
2024/02/10 10:33:22;;;;;;;18.40;10.73;;;;;;;4.42;21.52;100069.00;4787405;29;20170;-63
2024/02/10 10:35:49;;;;;;;18.80;11.60;;;;;;;3.09;21.62;100077.97;4777994;29;20043;-63
2024/02/10 10:38:16;;;;;;;17.58;11.57;;;;;;;2.19;21.83;100083.25;4761035;29;20133;-64
2024/02/10 10:40:45;;;;;;;18.95;10.60;;;;;;;1.07;23.60;100083.97;4772534;29;20053;-65
2024/02/10 10:43:12;;;;;;;17.30;9.35;;;;;;;0.65;24.91;100071.41;4769905;29;20107;-65
2024/02/10 10:45:38;;;;;;;16.83;9.85;;;;;;;0.30;24.95;100074.44;4790293;29;20551;-63
2024/02/10 10:48:06;;;;;;;17.90;10.02;;;;;;;0.37;25.05;100083.19;4787127;29;20063;-63
2024/02/10 10:50:33;;;;;;;14.13;8.55;;;;;;;0.01;25.60;100078.47;4789653;29;20047;-64
2024/02/10 10:53:12;;;;;;;17.63;8.65;;;;;;;-0.48;26.22;100096.16;4778787;29;20177;-63
2024/02/10 10:55:44;;;;;;;15.27;7.88;;;;;;;-0.97;26.78;100072.88;4792871;29;20054;-64
2024/02/10 10:58:16;;;;;;;15.90;7.57;;;;;;;-1.15;26.62;100101.09;4770929;29;20143;-64
2024/02/10 11:00:46;;;;;;;18.42;9.75;;;;;;;-1.74;26.59;100100.19;4777972;29;20043;-64
2024/02/10 11:03:17;;;;;;;14.80;8.00;;;;;;;-1.92;27.60;100115.50;4777222;29;20506;-65
2024/02/10 11:05:46;;;;;;;12.50;7.60;;;;;;;-2.11;28.13;100096.78;4781382;29;20047;-64
2024/02/10 11:08:27;;;;;;;15.13;8.15;;;;;;;-2.02;28.31;100099.78;4770855;29;20050;-65
2024/02/10 11:10:58;;;;;;;14.73;6.82;;;;;;;-2.06;27.89;100128.50;4779418;29;20137;-65
2024/02/10 11:13:28;;;;;;;14.52;7.32;;;;;;;-2.43;28.73;100116.53;4779252;29;20042;-65
2024/02/10 11:16:14;;;;;;;12.73;7.43;;;;;;;-2.36;29.49;100116.03;4774946;29;20051;-67
2024/02/10 11:18:56;;;;;;;13.80;7.45;;;;;;;-2.77;29.01;100131.03;4780258;29;20130;-66
2024/02/10 11:21:30;;;;;;;14.63;7.10;;;;;;;-3.20;28.51;100118.69;4792031;29;20050;-65
2024/02/10 11:24:14;;;;;;;15.65;7.68;;;;;;;-3.68;29.71;100136.50;4779025;29;20055;-65